Time,TemperatureF,DewpointF,PressureIn,WindDirection,WindDirectionDegrees,WindSpeedMPH,WindSpeedGustMPH,Humidity,HourlyPrecipIn,Conditions,Clouds,dailyrainin,SolarRadiationWatts/m^2,SoftwareType,DateUTC
2013-04-03 00:05:00,45.4,20.0,30.23,NW,305,0.0,0.0,37,0.00,,,0.00,0,weatherlink.com 1.10,2013-04-03 04:05:00,
2013-04-03 00:20:00,44.9,19.0,30.23,NW,305,0.0,0.0,36,0.00,,,0.00,0,weatherlink.com 1.10,2013-04-03 04:20:00,
2013-04-03 00:35:00,44.5,20.0,30.24,NW,305,0.0,0.0,37,0.00,,,0.00,0,weatherlink.com 1.10,2013-04-03 04:35:00,
2013-04-03 00:50:00,44.1,21.0,30.24,NW,305,0.0,0.0,40,0.00,,,0.00,0,weatherlink.com 1.10,2013-04-03 04:50:00,
2013-04-03 01:05:00,43.8,22.0,30.25,NW,305,0.0,0.0,42,0.00,,,0.00,0,weatherlink.com 1.10,2013-04-03 05:05:00,
2013-04-03 01:20:00,43.5,22.0,30.25,NW,305,0.0,0.0,43,0.00,,,0.00,0,weatherlink.com 1.10,2013-04-03 05:20:00,
2013-04-03 01:35:00,43.2,20.0,30.25,SSW,205,0.0,2.0,40,0.00,,,0.00,0,weatherlink.com 1.10,2013-04-03 05:35:00,
2013-04-03 01:50:00,43.1,20.0,30.25,SSE,156,0.0,2.0,40,0.00,,,0.00,0,weatherlink.com 1.10,2013-04-03 05:50:00,
2013-04-03 02:05:00,43.1,21.0,30.24,NNE,23,0.0,3.0,41,0.00,,,0.00,0,weatherlink.com 1.10,2013-04-03 06:05:00,
2013-04-03 02:20:00,42.9,23.0,30.24,ENE,73,0.0,1.0,45,0.00,,,0.00,0,weatherlink.com 1.10,2013-04-03 06:20:00,
2013-04-03 02:35:00,42.5,20.0,30.23,South,171,0.0,0.0,41,0.00,,,0.00,0,weatherlink.com 1.10,2013-04-03 06:35:00,
2013-04-03 02:50:00,41.9,19.0,30.24,South,171,0.0,1.0,40,0.00,,,0.00,0,weatherlink.com 1.10,2013-04-03 06:50:00,
2013-04-03 03:05:00,41.2,20.0,30.23,South,171,0.0,1.0,43,0.00,,,0.00,0,weatherlink.com 1.10,2013-04-03 07:05:00,
2013-04-03 03:20:00,40.5,19.0,30.23,South,171,0.0,0.0,43,0.00,,,0.00,0,weatherlink.com 1.10,2013-04-03 07:20:00,
2013-04-03 03:35:00,39.6,21.0,30.24,South,171,0.0,0.0,47,0.00,,,0.00,0,weatherlink.com 1.10,2013-04-03 07:35:00,
2013-04-03 03:50:00,38.8,20.0,30.24,South,171,0.0,0.0,48,0.00,,,0.00,0,weatherlink.com 1.10,2013-04-03 07:50:00,
2013-04-03 04:05:00,38.3,20.0,30.24,South,171,0.0,0.0,49,0.00,,,0.00,0,weatherlink.com 1.10,2013-04-03 08:05:00,
2013-04-03 04:20:00,37.9,21.0,30.24,South,171,0.0,0.0,51,0.00,,,0.00,0,weatherlink.com 1.10,2013-04-03 08:20:00,
2013-04-03 04:35:00,37.3,21.0,30.23,South,171,0.0,0.0,53,0.00,,,0.00,0,weatherlink.com 1.10,2013-04-03 08:35:00,
2013-04-03 04:50:00,36.9,21.0,30.23,South,171,0.0,0.0,54,0.00,,,0.00,0,weatherlink.com 1.10,2013-04-03 08:50:00,
2013-04-03 05:05:00,36.5,22.0,30.22,South,171,0.0,1.0,55,0.00,,,0.00,0,weatherlink.com 1.10,2013-04-03 09:05:00,
2013-04-03 05:20:00,36.0,22.0,30.23,South,171,0.0,0.0,58,0.00,,,0.00,0,weatherlink.com 1.10,2013-04-03 09:20:00,
2013-04-03 05:36:00,35.6,22.0,30.22,ENE,64,0.0,2.0,57,0.00,,,0.00,0,weatherlink.com 1.10,2013-04-03 09:36:00,
2013-04-03 05:51:00,35.3,22.0,30.22,ENE,64,0.0,0.0,58,0.00,,,0.00,0,weatherlink.com 1.10,2013-04-03 09:51:00,
2013-04-03 06:06:00,35.2,20.0,30.26,ENE,59,0.0,2.0,54,0.00,,,0.00,0,weatherlink.com 1.10,2013-04-03 10:06:00,
2013-04-03 06:21:00,35.2,22.0,30.24,ENE,59,0.0,0.0,59,0.00,,,0.00,0,weatherlink.com 1.10,2013-04-03 10:21:00,
2013-04-03 06:36:00,35.0,23.0,30.24,NW,317,0.0,1.0,63,0.00,,,0.00,0,weatherlink.com 1.10,2013-04-03 10:36:00,
2013-04-03 06:51:00,34.7,23.0,30.25,WSW,255,0.0,2.0,62,0.00,,,0.00,0,weatherlink.com 1.10,2013-04-03 10:51:00,
2013-04-03 08:06:00,34.3,22.0,30.30,WSW,237,0.0,1.0,61,0.00,,,0.00,44,weatherlink.com 1.10,2013-04-03 12:06:00,
2013-04-03 08:21:00,34.7,22.0,30.30,WSW,237,0.0,1.0,60,0.00,,,0.00,60,weatherlink.com 1.10,2013-04-03 12:21:00,
2013-04-03 08:36:00,35.9,22.0,30.30,SW,235,0.0,2.0,57,0.00,,,0.00,244,weatherlink.com 1.10,2013-04-03 12:36:00,
2013-04-03 09:06:00,40.9,20.0,30.31,ENE,71,2.0,7.0,44,0.00,,,0.00,376,weatherlink.com 1.10,2013-04-03 13:06:00,
2013-04-03 09:21:00,43.3,21.0,30.31,ENE,61,3.0,8.0,41,0.00,,,0.00,411,weatherlink.com 1.10,2013-04-03 13:21:00,
2013-04-03 09:36:00,44.8,21.0,30.31,ENE,65,2.0,7.0,39,0.00,,,0.00,434,weatherlink.com 1.10,2013-04-03 13:36:00,
2013-04-03 09:51:00,45.7,20.0,30.30,ENE,69,4.0,7.0,36,0.00,,,0.00,371,weatherlink.com 1.10,2013-04-03 13:51:00,
2013-04-03 10:06:00,45.8,19.0,30.30,East,80,2.0,8.0,35,0.00,,,0.00,541,weatherlink.com 1.10,2013-04-03 14:06:00,
2013-04-03 10:21:00,46.4,23.0,30.30,ENE,76,3.0,10.0,40,0.00,,,0.00,584,weatherlink.com 1.10,2013-04-03 14:21:00,
2013-04-03 10:36:00,47.7,22.0,30.30,ENE,68,1.0,8.0,37,0.00,,,0.00,619,weatherlink.com 1.10,2013-04-03 14:36:00,
2013-04-03 10:51:00,48.3,22.0,30.30,NNE,25,1.0,7.0,35,0.00,,,0.00,679,weatherlink.com 1.10,2013-04-03 14:51:00,
2013-04-03 11:07:00,48.9,23.0,30.29,NNE,30,2.0,11.0,36,0.00,,,0.00,733,weatherlink.com 1.10,2013-04-03 15:07:00,
2013-04-03 11:22:00,49.4,20.0,30.29,NE,51,0.0,9.0,32,0.00,,,0.00,779,weatherlink.com 1.10,2013-04-03 15:22:00,
2013-04-03 11:37:00,50.4,22.0,30.29,NE,48,4.0,9.0,33,0.00,,,0.00,809,weatherlink.com 1.10,2013-04-03 15:37:00,
2013-04-03 11:52:00,51.0,21.0,30.29,NE,42,0.0,9.0,31,0.00,,,0.00,835,weatherlink.com 1.10,2013-04-03 15:52:00,
2013-04-03 12:07:00,51.6,22.0,30.30,ENE,63,1.0,8.0,32,0.00,,,0.00,865,weatherlink.com 1.10,2013-04-03 16:07:00,
2013-04-03 12:22:00,53.5,24.0,30.30,NE,37,4.0,7.0,32,0.00,,,0.00,895,weatherlink.com 1.10,2013-04-03 16:22:00,
2013-04-03 12:37:00,52.8,25.0,30.29,ENE,68,2.0,10.0,34,0.00,,,0.00,926,weatherlink.com 1.10,2013-04-03 16:37:00,
2013-04-03 12:52:00,54.1,22.0,30.29,ENE,73,1.0,8.0,29,0.00,,,0.00,932,weatherlink.com 1.10,2013-04-03 16:52:00,
2013-04-03 13:07:00,52.9,20.0,30.29,WSW,244,0.0,6.0,28,0.00,,,0.00,888,weatherlink.com 1.10,2013-04-03 17:07:00,
2013-04-03 13:22:00,54.5,22.0,30.28,East,90,5.0,5.0,28,0.00,,,0.00,874,weatherlink.com 1.10,2013-04-03 17:22:00,
2013-04-03 13:37:00,55.3,26.0,30.28,WSW,237,0.0,5.0,33,0.00,,,0.00,860,weatherlink.com 1.10,2013-04-03 17:37:00,
2013-04-03 13:52:00,54.5,23.0,30.28,WSW,240,0.0,7.0,30,0.00,,,0.00,842,weatherlink.com 1.10,2013-04-03 17:52:00,
2013-04-03 14:07:00,54.1,21.0,30.26,ENE,59,1.0,7.0,27,0.00,,,0.00,816,weatherlink.com 1.10,2013-04-03 18:07:00,
2013-04-03 14:22:00,55.1,21.0,30.27,ENE,64,5.0,6.0,26,0.00,,,0.00,775,weatherlink.com 1.10,2013-04-03 18:22:00,
2013-04-03 14:37:00,55.1,22.0,30.27,ENE,74,2.0,5.0,28,0.00,,,0.00,668,weatherlink.com 1.10,2013-04-03 18:37:00,
2013-04-03 14:52:00,54.8,22.0,30.27,NE,34,1.0,9.0,28,0.00,,,0.00,591,weatherlink.com 1.10,2013-04-03 18:52:00,
2013-04-03 15:07:00,55.1,22.0,30.27,East,80,0.0,5.0,28,0.00,,,0.00,487,weatherlink.com 1.10,2013-04-03 19:07:00,
2013-04-03 15:22:00,54.8,21.0,30.27,NE,38,1.0,7.0,27,0.00,,,0.00,483,weatherlink.com 1.10,2013-04-03 19:22:00,
2013-04-03 15:37:00,55.0,23.0,30.27,East,83,0.0,4.0,29,0.00,,,0.00,424,weatherlink.com 1.10,2013-04-03 19:37:00,
2013-04-03 15:52:00,55.7,24.0,30.27,ENE,70,3.0,5.0,29,0.00,,,0.00,373,weatherlink.com 1.10,2013-04-03 19:52:00,
2013-04-03 16:07:00,55.6,24.0,30.26,ENE,77,3.0,5.0,30,0.00,,,0.00,350,weatherlink.com 1.10,2013-04-03 20:07:00,
2013-04-03 16:22:00,55.9,23.0,30.26,ENE,63,1.0,5.0,28,0.00,,,0.00,304,weatherlink.com 1.10,2013-04-03 20:22:00,
2013-04-03 16:37:00,55.7,23.0,30.26,East,90,2.0,3.0,28,0.00,,,0.00,271,weatherlink.com 1.10,2013-04-03 20:37:00,
2013-04-03 16:52:00,55.6,23.0,30.26,ENE,63,2.0,4.0,28,0.00,,,0.00,244,weatherlink.com 1.10,2013-04-03 20:52:00,
2013-04-03 17:07:00,55.4,23.0,30.25,NE,46,1.0,5.0,29,0.00,,,0.00,213,weatherlink.com 1.10,2013-04-03 21:07:00,
2013-04-03 17:22:00,55.6,24.0,30.25,ENE,57,1.0,3.0,29,0.00,,,0.00,190,weatherlink.com 1.10,2013-04-03 21:22:00,
2013-04-03 17:37:00,55.3,23.0,30.24,ENE,68,2.0,5.0,28,0.00,,,0.00,172,weatherlink.com 1.10,2013-04-03 21:37:00,
2013-04-03 17:52:00,55.1,24.0,30.24,ENE,63,0.0,7.0,30,0.00,,,0.00,146,weatherlink.com 1.10,2013-04-03 21:52:00,
2013-04-03 18:07:00,55.0,25.0,30.23,ENE,63,1.0,3.0,31,0.00,,,0.00,116,weatherlink.com 1.10,2013-04-03 22:07:00,
2013-04-03 18:22:00,54.7,23.0,30.23,ENE,66,0.0,7.0,29,0.00,,,0.00,95,weatherlink.com 1.10,2013-04-03 22:22:00,
2013-04-03 18:37:00,54.4,23.0,30.23,ENE,71,2.0,4.0,29,0.00,,,0.00,69,weatherlink.com 1.10,2013-04-03 22:37:00,
2013-04-03 18:52:00,54.1,23.0,30.22,ENE,73,1.0,4.0,30,0.00,,,0.00,53,weatherlink.com 1.10,2013-04-03 22:52:00,
2013-04-03 19:07:00,53.6,22.0,30.21,ENE,70,1.0,5.0,29,0.00,,,0.00,32,weatherlink.com 1.10,2013-04-03 23:07:00,
2013-04-03 19:22:00,53.3,25.0,30.21,ENE,61,3.0,4.0,33,0.00,,,0.00,21,weatherlink.com 1.10,2013-04-03 23:22:00,
2013-04-03 19:37:00,52.9,23.0,30.21,NNW,327,0.0,5.0,31,0.00,,,0.00,16,weatherlink.com 1.10,2013-04-03 23:37:00,
2013-04-03 19:52:00,52.8,22.0,30.22,ENE,59,2.0,5.0,30,0.00,,,0.00,0,weatherlink.com 1.10,2013-04-03 23:52:00,
2013-04-03 20:07:00,52.5,22.0,30.22,ENE,65,1.0,3.0,31,0.00,,,0.00,0,weatherlink.com 1.10,2013-04-04 00:07:00,
2013-04-03 20:22:00,52.3,23.0,30.22,ENE,63,0.0,3.0,32,0.00,,,0.00,0,weatherlink.com 1.10,2013-04-04 00:22:00,
2013-04-03 20:37:00,52.0,24.0,30.22,ENE,63,0.0,2.0,33,0.00,,,0.00,0,weatherlink.com 1.10,2013-04-04 00:37:00,
2013-04-03 20:52:00,51.6,25.0,30.22,ENE,58,0.0,2.0,35,0.00,,,0.00,0,weatherlink.com 1.10,2013-04-04 00:52:00,
2013-04-03 21:07:00,51.3,25.0,30.22,ENE,59,1.0,2.0,36,0.00,,,0.00,0,weatherlink.com 1.10,2013-04-04 01:07:00,
2013-04-03 21:22:00,50.8,25.0,30.23,ENE,59,0.0,1.0,37,0.00,,,0.00,0,weatherlink.com 1.10,2013-04-04 01:22:00,
2013-04-03 21:37:00,50.4,26.0,30.24,NE,46,0.0,0.0,39,0.00,,,0.00,0,weatherlink.com 1.10,2013-04-04 01:37:00,
2013-04-03 21:52:00,49.9,26.0,30.24,NE,46,0.0,0.0,40,0.00,,,0.00,0,weatherlink.com 1.10,2013-04-04 01:52:00,
2013-04-03 22:07:00,49.5,27.0,30.24,NE,46,0.0,1.0,42,0.00,,,0.00,0,weatherlink.com 1.10,2013-04-04 02:07:00,
2013-04-03 22:22:00,49.2,25.0,30.24,ENE,57,0.0,5.0,39,0.00,,,0.00,0,weatherlink.com 1.10,2013-04-04 02:22:00,
2013-04-03 22:37:00,49.5,25.0,30.23,ENE,77,2.0,3.0,38,0.00,,,0.00,0,weatherlink.com 1.10,2013-04-04 02:37:00,
2013-04-03 22:52:00,49.8,24.0,30.23,ENE,71,1.0,4.0,37,0.00,,,0.00,0,weatherlink.com 1.10,2013-04-04 02:52:00,
2013-04-03 23:07:00,49.9,24.0,30.22,ENE,57,0.0,4.0,36,0.00,,,0.00,0,weatherlink.com 1.10,2013-04-04 03:07:00,
2013-04-03 23:22:00,50.1,23.0,30.22,ENE,58,2.0,4.0,34,0.00,,,0.00,0,weatherlink.com 1.10,2013-04-04 03:22:00,
2013-04-03 23:37:00,50.1,23.0,30.22,East,86,1.0,5.0,34,0.00,,,0.00,0,weatherlink.com 1.10,2013-04-04 03:37:00,
2013-04-03 23:52:00,49.9,22.0,30.21,ENE,59,4.0,9.0,34,0.00,,,0.00,0,weatherlink.com 1.10,2013-04-04 03:52:00,